Meteo Giornale » Osservazioni meteo Svizzera » Zurigo-Kloten

ore: 14:50 - Osservazioni Meteo Zurigo-Kloten
Lat. 47° 29' N Lon. 8° 32' E Alt. 436 metri s.l.m.

sereno Europe/Zurich

20 °C

Sereno

Temp. 24 Ore

2 °C

20 °C

Nord

7.4 Km/h

Dew point 1 °C

Umidità 28 %

Visibilità  10 Km

Il sole sorge alle ore 06:51

Il sole tramonta alle ore 20:04

Data e Ora Cielo e Fenomeni T °C DP °C Um. % Pres. hPa Vis. km Vento km/h
Oggi h: 14:50 sereno Sereno 20 1 28 1024 10 N 7.4
Oggi h: 14:20 sereno Sereno 20 2 30 1024 10 N 5.5
Oggi h: 13:50 sereno Sereno 19 2 32 1024 10 N 5.5
Oggi h: 13:20 sereno Sereno 19 3 34 1024 10 N 5.5
Oggi h: 12:50 sereno Sereno 18 3 36 1024 10 N 3.7
Oggi h: 12:20 sereno Sereno 17 3 39 1024 10 N 5.5
Oggi h: 11:50 sereno Sereno 16 2 38 1024 10 N 5.5
Oggi h: 11:20 sereno Sereno 16 3 41 1024 10 S/SO 7.4
Oggi h: 10:50 sereno Sereno 14 3 47 1024 10 N 3.7
Oggi h: 10:20 sereno Sereno 13 3 50 1024 10 N 5.5
Oggi h: 09:50 sereno Sereno 11 3 57 1024 10 N 5.5
Oggi h: 09:20 sereno Sereno 10 4 66 1024 10 N 5.5
Oggi h: 08:50 sereno Sereno 8 3 70 1024 10 S/SE 7.4
Oggi h: 08:20 sereno Sereno 5 2 80 1023 10 N 3.7
Oggi h: 07:50 sereno Sereno 3 -0 80 1023 10 N 3.7
Oggi h: 07:20 sereno Sereno 2 -1 80 1023 10 N 5.5
Oggi h: 06:50 sereno Sereno 2 -0 86 1022 10 N 3.7
Oggi h: 05:50 sereno Sereno 2 -1 80 1022 10 N 5.5
Oggi h: 05:20 sereno Sereno 2 -0 86 1021 10 N 5.5
Oggi h: 04:50 sereno Sereno 2 -0 86 1021 10 N 1.8
Oggi h: 04:20 sereno Sereno 3 0 80 1021 10 N 1.8
Oggi h: 03:50 sereno Sereno 2 -1 80 1021 10 N 1.8
Oggi h: 03:20 sereno Sereno 3 0 80 1021 10 N 1.8
Oggi h: 02:50 sereno Sereno 3 0 80 1020 10 N 3.7
Oggi h: 01:50 sereno Sereno 4 2 86 1020 10 N 1.8
Oggi h: 01:20 sereno Sereno 5 0 70 1020 10 N 1.8
Oggi h: 00:50 sereno Sereno 5 0 70 1020 10 N 1.8
Oggi h: 00:20 sereno Sereno 5 0 70 1020 10 N 3.7
Ieri h: 23:50 sereno Sereno 7 1 65 1020 10 N 3.7
Ieri h: 23:20 sereno Sereno 7 1 65 1019 10 N 3.7
Ieri h: 22:50 sereno Sereno 8 0 56 1019 10 O 9.3
Ieri h: 22:20 sereno Sereno 8 0 56 1019 10 N 3.7
Ieri h: 21:50 sereno Sereno 8 1 61 1019 10 N 3.7
Ieri h: 21:20 sereno Sereno 10 0 49 1019 10 N 1.8
Ieri h: 20:50 sereno Sereno 12 -1 40 1019 10 N 1.8
Ieri h: 20:20 sereno Sereno 15 -1 33 1019 10 N 5.5
Ieri h: 19:50 sereno Sereno 16 -2 29 1019 10 E/SE 7.4
Ieri h: 19:20 sereno Sereno 17 -2 27 1019 10 E 9.3
Ieri h: 18:50 sereno Sereno 18 -2 25 1019 10 E 11.1
Ieri h: 18:20 sereno Sereno 18 -3 23 1019 10 E/NE 11.1
Ieri h: 17:50 sereno Sereno 18 -5 20 1019 10 E 11.1
Ieri h: 17:20 sereno Sereno 18 -6 18 1019 10 E/NE 14.8
Ieri h: 16:50 sereno Sereno 18 -1 27 1020 10 E 11.1
Ieri h: 16:20 sereno Sereno 18 -0 29 1020 10 E/NE 13
Ieri h: 15:50 sereno Sereno 18 -1 27 1020 10 NE 11.1